Time;durP1;ratioP1;P1;durP2;ratioP2;P2;SDS_P1;SDS_P2;PMS_P1;PMS_P2;Temp;Humidity;BMP_temperature;BMP_pressure;BME280_temperature;BME280_humidity;BME280_pressure;Samples;Min_cycle;Max_cycle;Signal;HPM_P1;HPM_P2
2022/08/04 00:01:20;;;;;;;4.20;2.33;;;;;;;32.75;33.60;99132.00;5117610;28;20023;-87
2022/08/04 00:04:02;;;;;;;2.97;2.42;;;;;;;32.75;33.94;99126.59;5118148;28;20036;-87
2022/08/04 00:06:58;;;;;;;4.13;2.63;;;;;;;32.74;33.91;99122.22;5117495;28;20461;-89
2022/08/04 00:09:47;;;;;;;3.85;2.60;;;;;;;32.73;33.64;99120.56;5119990;28;20445;-90
2022/08/04 00:12:15;;;;;;;4.32;2.90;;;;;;;32.73;33.64;99115.16;5102421;28;20108;-90
2022/08/04 00:14:48;;;;;;;3.50;2.35;;;;;;;32.74;34.12;99127.63;5117762;28;20081;-90
2022/08/04 00:17:15;;;;;;;2.80;2.22;;;;;;;32.73;33.86;99129.47;5117506;28;20066;-90
2022/08/04 00:19:46;;;;;;;3.60;2.58;;;;;;;32.72;33.63;99124.28;5117170;28;20023;-89
2022/08/04 00:22:14;;;;;;;5.05;2.60;;;;;;;32.72;33.81;99113.47;5117423;28;20023;-90
2022/08/04 00:24:40;;;;;;;2.90;2.33;;;;;;;32.70;33.86;99099.28;5117264;28;20020;-88
2022/08/04 00:27:07;;;;;;;3.78;2.65;;;;;;;32.70;33.83;99093.88;5118153;28;20026;-89
2022/08/04 00:29:34;;;;;;;3.17;2.50;;;;;;;32.70;33.92;99077.69;5117277;28;20080;-89
2022/08/04 00:32:02;;;;;;;4.25;2.70;;;;;;;32.67;34.03;99085.13;5119958;28;20108;-90
2022/08/04 00:34:30;;;;;;;3.72;2.65;;;;;;;32.68;33.92;99084.09;5125446;28;20031;-90
2022/08/04 00:36:57;;;;;;;4.20;3.03;;;;;;;32.66;34.23;99072.66;5122514;28;20027;-89
2022/08/04 00:39:24;;;;;;;2.80;2.13;;;;;;;32.66;34.18;99072.66;5119420;28;20027;-90
2022/08/04 00:41:59;;;;;;;2.90;2.13;;;;;;;32.67;33.97;99068.94;5117990;28;20122;-88
2022/08/04 00:45:06;;;;;;;3.92;2.70;;;;;;;32.65;34.29;99072.81;5117698;28;20050;-91
2022/08/04 00:48:04;;;;;;;3.20;2.10;;;;;;;32.64;34.05;99074.69;5117693;28;20023;-88
2022/08/04 00:50:51;;;;;;;3.33;2.60;;;;;;;32.64;34.11;99071.16;5118823;28;20365;-90
2022/08/04 00:53:37;;;;;;;3.28;2.40;;;;;;;32.63;34.18;99078.41;5118599;28;20091;-88
2022/08/04 00:56:18;;;;;;;4.03;2.60;;;;;;;32.62;34.25;99076.72;5116838;28;20039;-88
2022/08/04 00:59:13;;;;;;;3.70;2.38;;;;;;;32.62;34.36;99078.56;5116371;28;20374;-88
2022/08/04 01:01:59;;;;;;;4.13;2.40;;;;;;;32.60;34.45;99073.38;5116832;28;20059;-90
2022/08/04 01:04:52;;;;;;;3.63;2.70;;;;;;;32.60;34.40;99094.97;5116550;28;20028;-89
2022/08/04 01:07:49;;;;;;;2.90;2.40;;;;;;;32.60;34.43;99089.59;5116477;28;20023;-89
2022/08/04 01:10:30;;;;;;;4.18;2.40;;;;;;;32.58;34.55;99086.19;5116787;28;20070;-89
2022/08/04 01:13:25;;;;;;;3.45;2.55;;;;;;;32.58;34.45;99091.59;5118286;28;20151;-88
2022/08/04 01:15:51;;;;;;;3.83;2.70;;;;;;;32.58;34.31;99090.78;5118983;28;20046;-88
2022/08/04 01:18:53;;;;;;;3.97;2.72;;;;;;;32.57;34.59;99095.31;5122291;28;20027;-89
2022/08/04 01:21:28;;;;;;;3.83;2.72;;;;;;;32.55;34.28;99094.69;5123452;28;20068;-89
2022/08/04 01:24:25;;;;;;;3.43;2.57;;;;;;;32.54;34.22;99095.69;5125493;28;20042;-89
2022/08/04 01:27:08;;;;;;;3.97;2.88;;;;;;;32.53;34.60;99104.78;5091658;28;20070;-89
2022/08/04 01:29:43;;;;;;;3.30;2.50;;;;;;;32.53;34.62;99110.19;5118057;28;20031;-89
2022/08/04 01:32:24;;;;;;;4.35;2.72;;;;;;;32.51;34.37;99106.84;5117726;28;20076;-90
2022/08/04 01:34:54;;;;;;;3.20;2.50;;;;;;;32.51;34.50;99101.44;5118100;28;20038;-90
2022/08/04 01:38:07;;;;;;;4.78;2.70;;;;;;;32.51;34.73;99113.09;5117737;28;20083;-89
2022/08/04 01:40:36;;;;;;;2.92;2.40;;;;;;;32.51;34.54;99120.34;5020482;28;20056;-89
2022/08/04 01:43:03;;;;;;;3.30;2.60;;;;;;;32.49;34.43;99117.00;5099653;28;20035;-91
2022/08/04 01:45:30;;;;;;;3.40;2.35;;;;;;;32.48;34.76;99109.91;5118336;28;20464;-89
2022/08/04 01:47:56;;;;;;;3.97;2.70;;;;;;;32.49;34.46;99117.00;5117411;28;20050;-89
2022/08/04 01:50:26;;;;;;;3.25;2.47;;;;;;;32.48;34.66;99118.03;5115712;28;20096;-89
2022/08/04 01:52:54;;;;;;;3.10;2.30;;;;;;;32.46;34.79;99110.09;5115812;28;20047;-88
2022/08/04 01:55:20;;;;;;;3.20;2.30;;;;;;;32.47;34.48;99116.31;5116098;28;20418;-89
2022/08/04 01:57:50;;;;;;;3.67;2.53;;;;;;;32.46;34.63;99109.25;5115202;28;20119;-88
2022/08/04 02:00:21;;;;;;;3.67;2.45;;;;;;;32.47;34.53;99110.91;5116036;28;20061;-90
2022/08/04 02:02:49;;;;;;;2.97;2.25;;;;;;;32.46;34.53;99120.03;5116429;28;20422;-90
2022/08/04 02:05:17;;;;;;;3.80;2.63;;;;;;;32.45;34.97;99123.75;5121513;28;20034;-88
2022/08/04 02:07:59;;;;;;;3.75;2.63;;;;;;;32.45;34.81;99112.97;5122679;28;20019;-89
2022/08/04 02:11:03;;;;;;;2.70;2.20;;;;;;;32.45;34.80;99112.97;5120057;28;20028;-90
2022/08/04 02:16:53;;;;;;;3.10;2.40;;;;;;;32.41;34.70;99113.34;5083789;28;20046;-90
2022/08/04 02:19:34;;;;;;;3.50;2.30;;;;;;;32.41;34.80;99118.72;5116029;28;20023;-88
2022/08/04 02:22:20;;;;;;;3.22;2.25;;;;;;;32.40;34.67;99117.03;5114889;28;20024;-88
2022/08/04 02:24:49;;;;;;;2.58;2.20;;;;;;;32.41;35.07;99117.88;5116403;28;20031;-88
2022/08/04 02:27:21;;;;;;;2.60;2.20;;;;;;;32.40;34.71;99116.19;5114990;28;20020;-89
2022/08/04 02:29:47;;;;;;;3.35;2.40;;;;;;;32.40;34.83;99114.31;5116128;28;20028;-89
2022/08/04 02:32:26;;;;;;;3.35;2.33;;;;;;;32.38;34.75;99113.66;5115790;28;20433;-91
2022/08/04 02:35:33;;;;;;;3.15;2.40;;;;;;;32.39;34.83;99120.72;5118497;28;20028;-90
2022/08/04 02:38:15;;;;;;;;;;;;;;;32.39;34.84;99119.91;5034174;28;20116;-90
2022/08/04 02:40:42;;;;;;;3.65;2.58;;;;;;;32.37;35.06;99130.88;5109325;28;19944;-88
2022/08/04 02:43:10;;;;;;;3.78;2.55;;;;;;;32.38;34.58;99139.78;5115328;28;20034;-88
2022/08/04 02:45:39;;;;;;;3.70;2.40;;;;;;;32.37;35.05;99138.13;5115108;28;20114;-89
2022/08/04 02:48:09;;;;;;;3.30;2.50;;;;;;;32.34;35.03;99133.91;5115819;28;20442;-87
2022/08/04 02:50:38;;;;;;;3.33;2.63;;;;;;;32.34;35.15;99136.59;5122390;28;20051;-89
2022/08/04 02:53:04;;;;;;;3.90;2.67;;;;;;;32.34;35.21;99139.31;5117650;28;20028;-89
2022/08/04 02:55:31;;;;;;;3.53;2.70;;;;;;;32.32;35.31;99135.94;5116448;28;20037;-91
2022/08/04 02:58:00;;;;;;;3.70;2.60;;;;;;;32.33;34.95;99139.50;5116057;28;20369;-90
2022/08/04 03:00:27;;;;;;;3.05;2.38;;;;;;;32.32;35.29;99138.66;5116514;28;20042;-90
2022/08/04 03:03:11;;;;;;;4.25;2.58;;;;;;;32.32;35.31;99135.09;5115136;28;20038;-90
2022/08/04 03:05:54;;;;;;;3.88;2.90;;;;;;;32.31;35.25;99138.81;5115014;28;20039;-90
2022/08/04 03:08:32;;;;;;;3.50;2.40;;;;;;;32.30;35.26;99135.31;5114581;28;20035;-89
2022/08/04 03:11:19;;;;;;;3.42;2.58;;;;;;;32.30;35.30;99132.59;5114220;28;20031;-89
2022/08/04 03:14:34;;;;;;;4.05;2.63;;;;;;;32.29;35.41;99141.69;5114654;28;20028;-89
2022/08/04 03:17:37;;;;;;;3.53;2.58;;;;;;;32.29;35.57;99141.69;5114968;28;20461;-89
2022/08/04 03:20:16;;;;;;;4.53;2.78;;;;;;;32.28;35.55;99151.66;5120460;28;20039;-88
2022/08/04 03:22:45;;;;;;;3.83;2.45;;;;;;;32.27;35.56;99149.13;5118639;28;20124;-88
2022/08/04 03:25:37;;;;;;;3.88;2.22;;;;;;;32.26;35.41;99142.06;5118668;28;20517;-89
2022/08/04 03:28:53;;;;;;;4.43;3.13;;;;;;;32.26;35.71;99150.97;5118603;28;20084;-87
2022/08/04 03:31:47;;;;;;;4.30;2.78;;;;;;;32.25;35.68;99143.91;5118670;28;20464;-87
2022/08/04 03:34:21;;;;;;;3.95;2.95;;;;;;;32.24;35.47;99144.09;5119078;28;20023;-87
2022/08/04 03:37:28;;;;;;;4.07;2.67;;;;;;;32.23;35.93;99145.94;5123553;28;20028;-89
2022/08/04 03:40:05;;;;;;;3.60;2.50;;;;;;;32.24;35.97;99144.94;5123226;27;20034;-89
2022/08/04 03:43:25;;;;;;;3.97;2.67;;;;;;;32.22;35.79;99140.72;5119587;28;20062;-90
2022/08/04 03:46:36;;;;;;;3.45;2.33;;;;;;;32.23;35.64;99147.78;5121374;28;20054;-90
2022/08/04 03:49:32;;;;;;;3.95;2.80;;;;;;;32.21;35.96;99157.94;5022432;28;20029;-90
2022/08/04 03:55:53;;;;;;;4.50;2.72;;;;;;;32.19;36.17;99147.31;5123020;28;20043;-90
2022/08/04 03:58:31;;;;;;;4.15;2.75;;;;;;;32.20;35.89;99153.56;5118057;28;20438;-90
2022/08/04 04:01:28;;;;;;;3.72;2.80;;;;;;;32.19;36.14;99151.88;5118198;28;20364;-89
2022/08/04 04:04:07;;;;;;;3.80;2.58;;;;;;;32.19;36.17;99150.00;5117948;28;20054;-89
2022/08/04 04:06:45;;;;;;;4.03;2.60;;;;;;;32.18;36.17;99155.56;5117241;28;20028;-89
2022/08/04 04:09:25;;;;;;;4.13;2.53;;;;;;;32.15;36.16;99152.22;5117358;28;20096;-90
2022/08/04 04:12:32;;;;;;;4.75;2.72;;;;;;;32.15;36.25;99149.53;5117201;28;20036;-89
2022/08/04 04:15:40;;;;;;;4.40;2.72;;;;;;;32.14;36.28;99155.94;5092506;28;20039;-90
2022/08/04 04:18:20;;;;;;;3.72;2.45;;;;;;;32.14;36.11;99155.94;5117814;28;20429;-89
2022/08/04 04:20:54;;;;;;;3.58;2.65;;;;;;;32.14;36.47;99155.94;5119317;28;20180;-89
2022/08/04 04:23:57;;;;;;;4.35;2.60;;;;;;;32.14;36.53;99155.94;5126074;28;20027;-89
2022/08/04 04:27:08;;;;;;;3.53;2.50;;;;;;;32.13;36.35;99170.47;5122215;28;20334;-90
2022/08/04 04:29:53;;;;;;;3.47;2.40;;;;;;;32.11;36.43;99169.78;5074869;28;20031;-90
2022/08/04 04:32:23;;;;;;;4.00;2.60;;;;;;;32.11;36.34;99172.47;5120197;28;20051;-88
2022/08/04 04:35:25;;;;;;;4.25;2.53;;;;;;;32.12;36.41;99174.19;5116990;28;20445;-89
2022/08/04 04:38:25;;;;;;;3.92;2.90;;;;;;;32.11;36.47;99171.66;5116839;28;20441;-88
2022/08/04 04:41:06;;;;;;;3.95;2.55;;;;;;;32.10;36.81;99170.78;5117109;28;20142;-89
2022/08/04 04:43:59;;;;;;;3.25;2.30;;;;;;;32.09;36.65;99184.44;5116979;28;20175;-89
2022/08/04 04:46:49;;;;;;;3.28;2.63;;;;;;;32.08;36.73;99178.22;5117170;28;20119;-91
2022/08/04 04:49:38;;;;;;;4.32;2.65;;;;;;;32.07;36.84;99187.34;5118599;28;20031;-90
2022/08/04 04:52:12;;;;;;;3.15;2.42;;;;;;;32.06;36.63;99182.97;5116902;28;20031;-92
2022/08/04 04:54:44;;;;;;;3.42;2.30;;;;;;;32.06;36.85;99182.97;5116292;28;20085;-91
2022/08/04 04:57:20;;;;;;;4.25;2.47;;;;;;;32.06;37.00;99180.28;5119827;28;20078;-90
2022/08/04 04:59:49;;;;;;;4.30;2.80;;;;;;;32.06;36.93;99180.28;5116418;28;20453;-90
2022/08/04 05:02:45;;;;;;;4.90;2.80;;;;;;;32.04;36.65;99187.69;5116869;28;20031;-89
2022/08/04 05:05:29;;;;;;;5.10;2.85;;;;;;;32.05;36.92;99193.94;5116560;28;20059;-90
2022/08/04 05:08:01;;;;;;;3.25;2.03;;;;;;;32.04;37.18;99198.47;5118236;28;20032;-89
2022/08/04 05:10:46;;;;;;;4.28;2.42;;;;;;;32.03;36.98;99202.19;5122401;28;20042;-87
2022/08/04 05:14:15;;;;;;;4.40;2.30;;;;;;;32.02;37.24;99205.91;5121359;28;20460;-89
2022/08/04 05:16:46;;;;;;;3.60;2.50;;;;;;;32.01;36.98;99213.16;5039253;28;20032;-90
2022/08/04 05:19:22;;;;;;;3.65;2.60;;;;;;;32.02;37.12;99216.69;5113663;28;20082;-90
2022/08/04 05:21:51;;;;;;;4.93;2.72;;;;;;;32.02;37.15;99214.00;5116381;28;20107;-88
2022/08/04 05:24:21;;;;;;;4.53;2.30;;;;;;;32.01;37.15;99204.22;5116280;28;20031;-89
2022/08/04 05:26:58;;;;;;;3.95;2.30;;;;;;;31.99;37.46;99211.63;5116632;28;20039;-89
2022/08/04 05:29:30;;;;;;;4.00;2.60;;;;;;;31.99;37.25;99217.03;5117485;28;20091;-87
2022/08/04 05:32:00;;;;;;;4.15;2.30;;;;;;;31.99;37.19;99212.50;5116550;28;20027;-89
2022/08/04 05:34:42;;;;;;;4.15;2.67;;;;;;;32.00;37.09;99219.56;5116751;28;20028;-87
2022/08/04 05:37:14;;;;;;;3.72;2.53;;;;;;;32.00;37.13;99218.72;5116453;28;20115;-91
2022/08/04 05:39:52;;;;;;;3.92;2.70;;;;;;;32.00;37.60;99218.72;5117770;28;20016;-89
2022/08/04 05:42:18;;;;;;;3.95;3.00;;;;;;;31.99;37.36;99227.81;5119244;28;20090;-91
2022/08/04 05:44:45;;;;;;;6.05;2.85;;;;;;;31.98;37.51;99226.16;5118150;28;20118;-89
2022/08/04 05:47:12;;;;;;;4.30;2.50;;;;;;;31.98;37.39;99234.25;5117277;28;20044;-90
2022/08/04 05:49:40;;;;;;;3.88;2.47;;;;;;;31.97;37.48;99236.13;5118115;28;20024;-88
2022/08/04 05:52:06;;;;;;;4.68;3.05;;;;;;;31.97;37.63;99235.25;5119637;28;20031;-88
2022/08/04 05:54:34;;;;;;;4.03;2.70;;;;;;;31.98;37.74;99228.84;5120606;28;20039;-90
2022/08/04 05:57:03;;;;;;;3.80;2.20;;;;;;;31.97;37.68;99236.13;5118185;28;20043;-89
2022/08/04 05:59:30;;;;;;;3.58;2.20;;;;;;;31.97;37.71;99233.41;5116478;28;20113;-91
2022/08/04 06:01:59;;;;;;;3.65;2.60;;;;;;;31.98;38.07;99236.94;5117034;28;20193;-90
2022/08/04 06:04:34;;;;;;;3.90;2.70;;;;;;;31.98;37.69;99236.94;5118592;28;20023;-89
2022/08/04 06:07:00;;;;;;;5.90;2.22;;;;;;;31.97;38.08;99235.25;5115834;28;20051;-89
2022/08/04 06:09:26;;;;;;;4.40;2.67;;;;;;;32.00;37.77;99240.31;5115564;28;20119;-88
2022/08/04 06:11:55;;;;;;;4.85;2.85;;;;;;;31.98;37.57;99243.19;5115249;28;20031;-88
2022/08/04 06:14:23;;;;;;;4.10;2.47;;;;;;;31.99;37.85;99254.81;5115425;28;20595;-89
2022/08/04 06:16:50;;;;;;;4.13;2.63;;;;;;;32.00;37.76;99251.09;5115069;28;20480;-89
2022/08/04 06:19:17;;;;;;;4.22;2.88;;;;;;;32.00;37.63;99240.31;5115090;28;20027;-88
2022/08/04 06:21:49;;;;;;;3.97;2.75;;;;;;;31.99;38.08;99244.00;5115051;28;20034;-87
2022/08/04 06:24:18;;;;;;;5.63;2.65;;;;;;;32.00;37.88;99245.69;5114988;28;20417;-90
2022/08/04 06:26:46;;;;;;;4.55;3.00;;;;;;;31.99;38.08;99247.56;5115071;28;20023;-88
2022/08/04 06:29:23;;;;;;;3.60;2.65;;;;;;;31.99;38.16;99242.19;5115128;28;20369;-89
2022/08/04 06:32:01;;;;;;;4.10;2.80;;;;;;;32.00;38.03;99249.25;5114724;28;20023;-89
2022/08/04 06:34:28;;;;;;;4.18;2.95;;;;;;;32.00;37.85;99251.09;5118047;28;20028;-90
2022/08/04 06:36:57;;;;;;;3.92;2.58;;;;;;;32.00;38.54;99251.09;5121725;28;20030;-89
2022/08/04 06:39:25;;;;;;;4.43;2.88;;;;;;;31.99;38.60;99252.97;5120526;28;20027;-88
2022/08/04 06:41:53;;;;;;;4.68;2.60;;;;;;;32.01;38.26;99252.81;5118173;28;20019;-90
2022/08/04 06:44:20;;;;;;;5.18;2.55;;;;;;;31.99;38.22;99252.97;5115889;28;20114;-91
2022/08/04 06:46:47;;;;;;;4.85;3.08;;;;;;;32.02;38.50;99259.88;5115248;28;20028;-90
2022/08/04 06:49:13;;;;;;;3.95;2.72;;;;;;;32.01;38.43;99255.50;5115376;28;20097;-90
2022/08/04 06:51:41;;;;;;;4.78;3.60;;;;;;;32.00;39.10;99259.19;5117273;28;20028;-89
2022/08/04 06:54:15;;;;;;;4.20;2.88;;;;;;;32.01;38.26;99263.59;5117762;28;20015;-89
2022/08/04 06:56:44;;;;;;;4.72;2.88;;;;;;;32.03;38.67;99266.09;5115961;28;20027;-89
2022/08/04 06:59:13;;;;;;;3.58;2.58;;;;;;;32.04;38.32;99274.03;5117766;28;20043;-89
2022/08/04 07:01:39;;;;;;;4.47;2.75;;;;;;;32.03;38.80;99266.94;5117947;28;20022;-90
2022/08/04 07:04:06;;;;;;;6.20;3.35;;;;;;;32.03;38.79;99269.66;5118357;28;20019;-88
2022/08/04 07:06:33;;;;;;;4.47;2.75;;;;;;;32.04;38.63;99271.34;5118727;28;20019;-89
2022/08/04 07:09:10;;;;;;;5.60;3.55;;;;;;;32.04;38.88;99268.63;5118232;28;20027;-88
2022/08/04 07:11:37;;;;;;;5.43;3.25;;;;;;;32.04;38.90;99267.81;5117637;28;20110;-88
2022/08/04 07:14:04;;;;;;;4.53;3.25;;;;;;;32.04;39.20;99271.34;5118090;28;20027;-87
2022/08/04 07:16:30;;;;;;;5.40;3.35;;;;;;;32.05;38.97;99275.72;5121368;28;20023;-88
2022/08/04 07:18:57;;;;;;;4.97;3.35;;;;;;;32.04;39.25;99279.44;5118263;28;20523;-87
2022/08/04 07:21:23;;;;;;;4.22;3.03;;;;;;;32.04;39.12;99282.13;5124536;28;20035;-88
2022/08/04 07:23:50;;;;;;;5.43;3.70;;;;;;;32.05;39.24;99275.72;5140936;28;20057;-89
2022/08/04 07:26:18;;;;;;;5.25;3.53;;;;;;;32.05;39.08;99281.09;5118553;28;20031;-89
2022/08/04 07:28:44;;;;;;;5.20;3.50;;;;;;;32.06;39.10;99288.22;5118670;28;20019;-90
2022/08/04 07:31:14;;;;;;;6.47;3.40;;;;;;;32.06;39.21;99285.50;5118521;28;20019;-87
2022/08/04 07:33:42;;;;;;;4.63;3.20;;;;;;;32.07;39.32;99289.88;5117949;28;20444;-90
2022/08/04 07:36:08;;;;;;;5.40;3.55;;;;;;;32.10;39.34;99278.75;5117657;28;20118;-89
2022/08/04 07:38:34;;;;;;;5.10;3.25;;;;;;;32.08;39.68;99280.78;5117722;28;20015;-89
2022/08/04 07:41:02;;;;;;;5.55;3.50;;;;;;;32.11;39.65;99282.28;5117790;28;20042;-90
2022/08/04 07:43:30;;;;;;;5.00;3.95;;;;;;;32.11;39.50;99290.38;5117984;28;20019;-89
2022/08/04 07:45:56;;;;;;;4.72;3.30;;;;;;;32.13;39.44;99283.81;5117863;28;20544;-89
2022/08/04 07:48:23;;;;;;;5.90;3.58;;;;;;;32.14;39.67;99285.47;5117608;28;20023;-89
2022/08/04 07:50:50;;;;;;;4.93;3.55;;;;;;;32.14;39.60;99282.78;5135649;28;20102;-89
2022/08/04 07:53:17;;;;;;;5.82;3.85;;;;;;;32.15;39.61;99286.34;5117733;28;20035;-90
2022/08/04 07:55:45;;;;;;;5.95;3.88;;;;;;;32.17;39.74;99288.84;5117603;28;20114;-88
2022/08/04 07:58:11;;;;;;;6.03;3.97;;;;;;;32.17;39.77;99283.44;5117296;28;20035;-89
2022/08/04 08:00:39;;;;;;;5.28;3.88;;;;;;;32.19;39.79;99292.22;5118852;28;20031;-91
2022/08/04 08:03:06;;;;;;;4.88;3.60;;;;;;;32.19;40.02;99282.25;5119254;28;20059;-89
2022/08/04 08:05:32;;;;;;;5.57;4.10;;;;;;;32.20;40.33;99283.13;5126392;27;20043;-91
2022/08/04 08:08:04;;;;;;;8.20;3.50;;;;;;;32.21;40.13;99284.78;5128841;27;20025;-90
2022/08/04 08:10:30;;;;;;;5.95;3.90;;;;;;;32.21;40.23;99290.19;5125127;27;20078;-90
2022/08/04 08:12:57;;;;;;;4.28;3.53;;;;;;;32.22;40.35;99281.06;5124584;27;20019;-89
2022/08/04 08:15:23;;;;;;;5.47;4.45;;;;;;;32.21;40.06;99274.00;5141757;27;20095;-88
2022/08/04 08:17:50;;;;;;;5.65;3.97;;;;;;;32.23;40.12;99272.81;5121543;27;20034;-90
2022/08/04 08:20:16;;;;;;;5.00;4.22;;;;;;;32.25;40.54;99272.66;5120791;27;20026;-89
2022/08/04 08:22:42;;;;;;;6.47;4.22;;;;;;;32.25;40.20;99273.47;5120626;27;20031;-89
2022/08/04 08:25:08;;;;;;;4.68;3.55;;;;;;;32.27;41.05;99273.31;5120742;27;20432;-89
2022/08/04 08:27:37;;;;;;;6.28;4.40;;;;;;;32.26;41.17;99272.44;5121262;27;20094;-89
2022/08/04 08:30:03;;;;;;;5.72;4.28;;;;;;;32.28;41.02;99274.97;5121325;27;20022;-89
2022/08/04 08:32:30;;;;;;;5.18;3.95;;;;;;;32.30;40.98;99267.56;5120624;27;20460;-89
2022/08/04 08:34:57;;;;;;;5.47;3.92;;;;;;;32.31;40.93;99263.84;5138676;27;20034;-90
2022/08/04 08:37:42;;;;;;;5.68;4.22;;;;;;;32.31;41.00;99265.69;5120798;27;20051;-87
2022/08/04 08:40:34;;;;;;;5.43;4.18;;;;;;;32.34;41.36;99268.88;5138620;27;20080;-89
2022/08/04 08:43:29;;;;;;;7.20;4.72;;;;;;;32.34;41.19;99260.78;5120171;27;20027;-88
2022/08/04 08:46:34;;;;;;;5.30;4.38;;;;;;;32.37;41.18;99262.31;5120213;27;20027;-90
2022/08/04 08:49:52;;;;;;;4.70;3.97;;;;;;;32.39;40.99;99263.81;5121026;27;20060;-89
2022/08/04 08:52:26;;;;;;;6.10;4.07;;;;;;;32.41;40.99;99252.88;5039734;27;20388;-88
2022/08/04 08:55:14;;;;;;;4.90;4.13;;;;;;;32.42;40.92;99254.56;5125222;27;20034;-90
2022/08/04 08:58:05;;;;;;;5.22;3.88;;;;;;;32.45;40.94;99258.78;5120457;27;20483;-91
2022/08/04 09:00:41;;;;;;;5.60;4.25;;;;;;;32.47;40.93;99251.31;5122251;27;20046;-90
2022/08/04 09:03:44;;;;;;;4.82;3.78;;;;;;;32.48;41.13;99253.03;5120317;27;20131;-89
2022/08/04 09:06:44;;;;;;;5.25;3.78;;;;;;;32.50;41.00;99249.16;5138844;27;20026;-89
2022/08/04 09:09:18;;;;;;;6.22;3.45;;;;;;;32.51;40.72;99241.88;5120389;27;20027;-91
2022/08/04 09:12:12;;;;;;;6.65;4.32;;;;;;;32.53;40.78;99250.63;5120727;27;20027;-89
2022/08/04 09:15:04;;;;;;;4.63;3.75;;;;;;;32.54;40.84;99249.63;5120396;27;20440;-90
2022/08/04 09:17:40;;;;;;;5.40;4.10;;;;;;;32.56;40.65;99250.28;5120081;27;20034;-89
2022/08/04 09:20:15;;;;;;;7.80;4.80;;;;;;;32.58;40.52;99248.25;5120858;27;20019;-89
2022/08/04 09:22:47;;;;;;;5.57;4.20;;;;;;;32.60;40.85;99246.22;5121470;27;20031;-90
2022/08/04 09:25:20;;;;;;;5.05;4.25;;;;;;;32.61;40.68;99253.31;5120910;27;20114;-91
2022/08/04 09:27:53;;;;;;;5.18;4.18;;;;;;;32.62;40.84;99244.19;5138522;27;20111;-90
2022/08/04 09:31:00;;;;;;;6.55;4.15;;;;;;;32.65;40.48;99248.38;5120039;27;20023;-90
2022/08/04 09:33:35;;;;;;;5.47;4.57;;;;;;;32.66;40.32;99240.13;5120757;27;20515;-91
2022/08/04 09:36:14;;;;;;;5.53;4.45;;;;;;;32.68;40.31;99240.78;5122881;27;20041;-91
2022/08/04 09:39:01;;;;;;;6.03;4.45;;;;;;;32.70;40.15;99242.44;5119817;27;20460;-90
2022/08/04 09:41:35;;;;;;;5.90;4.47;;;;;;;32.71;40.25;99238.72;5150661;27;20034;-90
2022/08/04 09:44:07;;;;;;;5.18;4.18;;;;;;;32.71;40.25;99236.03;5129996;27;20550;-89
2022/08/04 09:46:51;;;;;;;6.03;4.20;;;;;;;32.74;40.14;99232.97;5122534;27;20483;-91
2022/08/04 09:50:00;;;;;;;5.43;4.40;;;;;;;32.77;39.83;99221.84;5120299;27;20041;-91
2022/08/04 09:52:44;;;;;;;4.53;4.07;;;;;;;32.79;39.79;99228.72;5119250;27;20449;-90
2022/08/04 09:55:36;;;;;;;5.13;4.47;;;;;;;32.80;39.91;99229.56;5137968;27;20023;-88
2022/08/04 09:58:31;;;;;;;6.00;5.10;;;;;;;32.82;39.64;99224.81;5118895;27;20380;-90
2022/08/04 10:01:07;;;;;;;4.97;4.47;;;;;;;32.84;39.78;99220.09;5119365;27;20138;-91
2022/08/04 10:03:48;;;;;;;5.85;5.05;;;;;;;32.86;39.68;99218.06;5119552;27;20398;-89
2022/08/04 10:06:33;;;;;;;5.68;4.72;;;;;;;32.89;39.33;99217.72;5139148;27;20032;-90
2022/08/04 10:09:04;;;;;;;5.53;4.57;;;;;;;32.92;39.15;99211.94;5120666;27;20084;-89
2022/08/04 10:12:08;;;;;;;6.88;4.60;;;;;;;32.94;39.22;99215.28;5120309;27;20038;-89
2022/08/04 10:14:47;;;;;;;6.38;4.90;;;;;;;32.95;38.91;99211.59;5111407;27;20478;-89
2022/08/04 10:17:38;;;;;;;5.60;4.50;;;;;;;32.99;39.30;99205.84;5121128;27;20135;-90
2022/08/04 10:20:19;;;;;;;6.47;4.70;;;;;;;33.02;39.26;99210.91;5122719;27;20414;-89
2022/08/04 10:23:15;;;;;;;6.32;4.95;;;;;;;33.04;39.07;99204.28;5126672;27;20030;-92
2022/08/04 10:26:06;;;;;;;6.43;5.13;;;;;;;33.06;39.17;99206.78;5124951;27;20034;-90
2022/08/04 10:28:48;;;;;;;5.45;4.50;;;;;;;33.08;38.97;99199.38;5139359;27;20023;-90
2022/08/04 10:31:27;;;;;;;5.60;4.38;;;;;;;33.08;39.03;99194.78;5119780;27;20351;-91
2022/08/04 10:34:10;;;;;;;5.40;4.30;;;;;;;33.11;39.27;99190.88;5118893;27;20042;-92
2022/08/04 10:37:14;;;;;;;5.70;4.60;;;;;;;33.14;38.40;99189.69;5118573;27;20035;-92
2022/08/04 10:40:35;;;;;;;6.05;4.93;;;;;;;33.17;38.63;99190.16;5118557;27;20030;-92
2022/08/04 10:43:08;;;;;;;5.97;4.20;;;;;;;33.20;38.25;99180.84;5136541;27;20029;-90
2022/08/04 10:46:32;;;;;;;6.10;4.53;;;;;;;33.22;38.29;99174.22;5117993;27;20023;-90
2022/08/04 10:49:35;;;;;;;5.53;4.47;;;;;;;33.26;38.72;99179.28;5108306;27;20455;-90
2022/08/04 10:52:40;;;;;;;5.03;4.40;;;;;;;33.28;37.97;99169.97;5121823;27;20160;-90
2022/08/04 10:55:40;;;;;;;6.70;5.18;;;;;;;33.31;38.31;99171.47;5118819;27;20391;-89
2022/08/04 10:58:52;;;;;;;6.60;4.38;;;;;;;33.36;37.73;99174.47;5115715;28;20069;-88
2022/08/04 11:01:52;;;;;;;5.97;4.75;;;;;;;33.37;37.93;99170.75;5118620;28;20104;-90
2022/08/04 11:04:41;;;;;;;5.53;4.45;;;;;;;33.39;38.39;99170.53;5117875;28;20035;-88
2022/08/04 11:07:12;;;;;;;5.85;4.60;;;;;;;33.39;38.20;99165.97;5118855;28;20460;-90
2022/08/04 11:09:41;;;;;;;5.53;4.15;;;;;;;33.42;38.40;99162.94;5118827;28;20042;-89
2022/08/04 11:12:18;;;;;;;5.22;4.43;;;;;;;33.43;38.00;99156.50;5122885;28;20148;-89
2022/08/04 11:15:19;;;;;;;5.72;4.85;;;;;;;33.46;38.04;99158.81;5120310;28;20023;-91
2022/08/04 11:18:01;;;;;;;5.05;4.20;;;;;;;33.50;38.30;99158.47;5119120;28;20049;-91
2022/08/04 11:20:48;;;;;;;4.97;4.30;;;;;;;33.50;37.95;99161.16;5118742;28;20095;-89
2022/08/04 11:23:16;;;;;;;5.35;4.53;;;;;;;33.52;38.20;99153.72;5118487;28;20027;-91
2022/08/04 11:25:51;;;;;;;5.28;4.45;;;;;;;33.54;37.77;99155.22;5118171;28;20023;-92
2022/08/04 11:28:28;;;;;;;5.33;4.50;;;;;;;33.57;37.97;99149.47;5117977;28;20047;-91
2022/08/04 11:30:56;;;;;;;5.15;4.20;;;;;;;33.58;38.19;99151.13;5136170;28;20348;-90
2022/08/04 11:33:49;;;;;;;5.50;4.20;;;;;;;33.61;37.56;99150.75;5117687;28;20023;-90
2022/08/04 11:36:44;;;;;;;4.78;4.05;;;;;;;33.63;38.29;99147.03;5118094;28;20023;-90
2022/08/04 11:39:24;;;;;;;4.70;4.07;;;;;;;33.66;37.78;99147.50;5118968;27;20120;-89
2022/08/04 11:41:52;;;;;;;5.50;4.57;;;;;;;33.68;37.81;99145.44;5142172;27;20023;-89
2022/08/04 11:44:40;;;;;;;5.72;4.68;;;;;;;33.71;37.70;99133.41;5123010;27;20050;-89
2022/08/04 11:47:31;;;;;;;6.75;5.13;;;;;;;33.72;37.68;99135.94;5121629;27;20395;-90
2022/08/04 11:50:09;;;;;;;6.05;4.90;;;;;;;33.74;37.92;99139.28;5121191;27;20452;-90
2022/08/04 11:52:39;;;;;;;5.80;4.45;;;;;;;33.78;37.54;99133.53;5122234;27;20364;-90
2022/08/04 11:55:10;;;;;;;5.50;4.32;;;;;;;33.79;37.66;99129.78;5128535;27;20030;-90
2022/08/04 11:57:36;;;;;;;4.82;4.32;;;;;;;33.81;37.61;99127.72;5125120;27;20042;-90
2022/08/04 12:00:08;;;;;;;5.07;4.25;;;;;;;33.82;37.76;99126.69;5105259;28;20051;-92
2022/08/04 12:03:11;;;;;;;5.70;4.78;;;;;;;33.84;37.34;99116.53;5104615;28;20038;-92
2022/08/04 12:05:50;;;;;;;5.07;4.38;;;;;;;33.85;37.92;99123.63;5102024;28;20038;-91
2022/08/04 12:08:37;;;;;;;4.78;4.20;;;;;;;33.86;37.73;99119.88;5100816;28;20116;-90
2022/08/04 12:11:18;;;;;;;5.30;4.40;;;;;;;33.87;37.42;99119.69;5101007;28;20503;-90
2022/08/04 12:14:02;;;;;;;5.45;4.47;;;;;;;33.89;37.56;99119.50;5100521;28;20027;-91
2022/08/04 12:16:55;;;;;;;5.38;4.78;;;;;;;33.90;37.27;99115.78;5119248;28;20028;-91
2022/08/04 12:19:29;;;;;;;5.38;4.72;;;;;;;33.93;37.59;99120.81;5090552;28;20115;-91
2022/08/04 12:22:00;;;;;;;5.05;4.13;;;;;;;33.95;37.93;99112.50;5101154;28;20122;-91
2022/08/04 12:24:58;;;;;;;5.57;4.97;;;;;;;33.95;37.37;99113.34;5100480;28;20443;-91
2022/08/04 12:27:30;;;;;;;6.35;4.72;;;;;;;33.97;37.88;99105.88;5100830;28;20031;-91
2022/08/04 12:29:56;;;;;;;4.82;4.20;;;;;;;33.99;37.97;99111.94;5101354;28;20035;-90
2022/08/04 12:32:36;;;;;;;5.82;5.10;;;;;;;34.00;37.24;99100.06;5104326;28;20095;-91
2022/08/04 12:35:19;;;;;;;5.15;4.60;;;;;;;34.03;37.59;99106.16;5105429;28;20048;-92
2022/08/04 12:38:03;;;;;;;5.72;4.47;;;;;;;34.06;37.83;99100.38;5101317;28;20024;-90